Ecokeeper — SVTY — position and weather

sailwx.info

Track history (hours):
 
Tides and Currents Weather Stations Pressure Air Temp Water Temp Dewpoint Dewpoint Depression Visibility Wind Speed Wind Dir Waves Ship Positions

Ecokeeper

Last reported at 2015-May-05 17:33 UTC. Time now 2015-May-06 08:28 UTC.
Position N 37°57' E 023°34'.

Length 90 m; draft 4.4 m.

Type: Tanker. MMSI: 240689000.

Date/timePositionNaut miles runAvg speedWind from/ knotsBaromVisibWave heightAir tempDewpointWater temp
2015-May-05 17:33N 37°57' E 023°34'4 4.1
2015-May-05 16:33N 37°53' E 023°32'0 0.1
2015-May-05 15:33N 37°53' E 023°32'0 0.0
2015-May-05 14:33N 37°54' E 023°32'0 0.1
2015-May-05 13:33N 37°54' E 023°32'0 0.1
2015-May-05 12:33N 37°53' E 023°32'0 0.0
2015-May-05 11:33N 37°53' E 023°32'0 0.0
2015-May-05 10:33N 37°53' E 023°32'0 0.0
2015-May-05 09:33N 37°53' E 023°32'0 0.0
2015-May-05 08:33N 37°54' E 023°32'0 0.1
2015-May-05 07:33N 37°53' E 023°32'0 0.1
2015-May-05 06:33N 37°53' E 023°32'0 0.1
2015-May-05 05:33N 37°53' E 023°32'1 1.0
2015-May-05 04:33N 37°54' E 023°33'3 0.3
2015-May-04 16:33N 37°57' E 023°34'5 5.3
2015-May-04 15:33N 37°52' E 023°31'0 0.0
2015-May-04 14:33N 37°52' E 023°31'0 0.0
2015-May-04 13:33N 37°52' E 023°31'0 0.0
2015-May-04 12:33N 37°52' E 023°31'0 0.1
2015-May-04 11:33N 37°52' E 023°31'0 0.1
2015-May-04 10:33N 37°52' E 023°31'0 0.0
2015-May-04 09:33N 37°52' E 023°31'0 0.0
2015-May-04 07:33N 37°52' E 023°31'0 0.1
2015-May-04 06:14N 37°52' E 023°31'3 4.6
2015-May-04 05:33N 37°54' E 023°34'  
2015-Apr-28 07:33N 37°57' E 023°35'5 4.6
2015-Apr-28 06:33N 37°52' E 023°32'3 3.2
2015-Apr-28 05:33N 37°55' E 023°34'  
Track history (hours):
 
Tides and Currents Weather Stations Pressure Air Temp Water Temp Dewpoint Dewpoint Depression Visibility Wind Speed Wind Dir Waves Ship Positions

Ecokeeper

Last reported at 2015-May-05 17:33 UTC. Time now 2015-May-06 08:28 UTC.
Position N 37°57' E 023°34'.

Length 90 m; draft 4.4 m.

Type: Tanker. MMSI: 240689000.

Date/timePositionNaut miles runAvg speedWind from/ knotsBaromVisibWave heightAir tempDewpointWater temp
2015-May-05 17:33N 37°57' E 023°34'4 4.1
2015-May-05 16:33N 37°53' E 023°32'0 0.1
2015-May-05 15:33N 37°53' E 023°32'0 0.0
2015-May-05 14:33N 37°54' E 023°32'0 0.1
2015-May-05 13:33N 37°54' E 023°32'0 0.1
2015-May-05 12:33N 37°53' E 023°32'0 0.0
2015-May-05 11:33N 37°53' E 023°32'0 0.0
2015-May-05 10:33N 37°53' E 023°32'0 0.0
2015-May-05 09:33N 37°53' E 023°32'0 0.0
2015-May-05 08:33N 37°54' E 023°32'0 0.1
2015-May-05 07:33N 37°53' E 023°32'0 0.1
2015-May-05 06:33N 37°53' E 023°32'0 0.1
2015-May-05 05:33N 37°53' E 023°32'1 1.0
2015-May-05 04:33N 37°54' E 023°33'3 0.3
2015-May-04 16:33N 37°57' E 023°34'5 5.3
2015-May-04 15:33N 37°52' E 023°31'0 0.0
2015-May-04 14:33N 37°52' E 023°31'0 0.0
2015-May-04 13:33N 37°52' E 023°31'0 0.0
2015-May-04 12:33N 37°52' E 023°31'0 0.1
2015-May-04 11:33N 37°52' E 023°31'0 0.1
2015-May-04 10:33N 37°52' E 023°31'0 0.0
2015-May-04 09:33N 37°52' E 023°31'0 0.0
2015-May-04 07:33N 37°52' E 023°31'0 0.1
2015-May-04 06:14N 37°52' E 023°31'3 4.6
2015-May-04 05:33N 37°54' E 023°34'  
2015-Apr-28 07:33N 37°57' E 023°35'5 4.6
2015-Apr-28 06:33N 37°52' E 023°32'3 3.2
2015-Apr-28 05:33N 37°55' E 023°34'  

Dump ship's entire track history